Time;durP1;ratioP1;P1;durP2;ratioP2;P2;SDS_P1;SDS_P2;PMS_P1;PMS_P2;Temp;Humidity;BMP_temperature;BMP_pressure;BME280_temperature;BME280_humidity;BME280_pressure;Samples;Min_cycle;Max_cycle;Signal;HPM_P1;HPM_P2
2023/04/18 00:02:03;;;;;;;1999.90;999.90;;;29.90;90.60;;;;;;5043117;28;20067;-70
2023/04/18 00:04:32;;;;;;;1999.90;999.90;;;29.90;90.60;;;;;;5035017;28;20120;-70
2023/04/18 00:07:00;;;;;;;1999.90;999.90;;;30.20;90.20;;;;;;5043429;28;20043;-70
2023/04/18 00:09:27;;;;;;;1999.90;999.90;;;30.50;89.40;;;;;;5037581;28;20126;-70
2023/04/18 00:11:55;;;;;;;1999.90;999.90;;;30.50;88.70;;;;;;5050896;28;20033;-70
2023/04/18 00:14:22;;;;;;;1999.90;999.90;;;30.40;89.60;;;;;;5047248;28;20036;-70
2023/04/18 00:16:50;;;;;;;1999.90;999.90;;;30.40;89.20;;;;;;5039855;28;20075;-70
2023/04/18 00:19:17;;;;;;;1999.90;999.90;;;30.40;88.60;;;;;;5040434;28;20112;-70
2023/04/18 00:21:45;;;;;;;1999.90;999.90;;;30.60;88.50;;;;;;5049030;28;20998;-71
2023/04/18 00:24:13;;;;;;;1999.90;999.90;;;30.70;88.20;;;;;;5053452;28;20024;-68
2023/04/18 00:26:40;;;;;;;1999.90;999.90;;;30.80;87.70;;;;;;5054371;28;20025;-69
2023/04/18 00:29:07;;;;;;;1999.90;999.90;;;31.00;86.30;;;;;;5045159;28;20452;-69
2023/04/18 00:31:35;;;;;;;1999.90;999.90;;;30.70;87.70;;;;;;5051117;28;20033;-68
2023/04/18 00:34:02;;;;;;;1999.90;999.90;;;31.00;87.40;;;;;;5043739;28;20039;-68
2023/04/18 00:36:29;;;;;;;1999.90;999.90;;;31.30;86.60;;;;;;5045930;28;20628;-69
2023/04/18 00:38:57;;;;;;;1999.90;999.90;;;31.40;84.80;;;;;;5047837;28;20403;-69
2023/04/18 00:41:26;;;;;;;1999.90;999.90;;;31.10;85.30;;;;;;5051306;28;20067;-68
2023/04/18 00:43:54;;;;;;;1999.90;999.90;;;31.00;86.10;;;;;;5047533;28;20049;-68
2023/04/18 00:46:21;;;;;;;1999.90;999.90;;;31.10;85.90;;;;;;5049934;28;20021;-69
2023/04/18 00:48:49;;;;;;;1999.90;999.90;;;31.10;85.20;;;;;;5049017;28;20039;-70
2023/04/18 00:51:17;;;;;;;1999.90;999.90;;;31.00;86.10;;;;;;5045213;28;20048;-70
2023/04/18 00:53:44;;;;;;;1999.90;999.90;;;31.30;86.40;;;;;;5040765;28;20476;-69
2023/04/18 00:56:13;;;;;;;1999.90;999.90;;;31.50;84.50;;;;;;5049721;28;20025;-70
2023/04/18 00:58:40;;;;;;;1999.90;999.90;;;31.20;83.00;;;;;;5049233;28;20390;-70
2023/04/18 01:01:09;;;;;;;1999.90;999.90;;;30.60;83.80;;;;;;5049958;28;20491;-70
2023/04/18 01:03:38;;;;;;;1999.90;999.90;;;30.50;84.30;;;;;;5036853;28;20045;-70
2023/04/18 01:06:05;;;;;;;1999.90;999.90;;;30.00;85.30;;;;;;5047931;28;20017;-69
2023/04/18 01:08:33;;;;;;;1999.90;999.90;;;29.50;85.70;;;;;;5047531;28;20041;-69
2023/04/18 01:11:00;;;;;;;1999.90;999.90;;;29.10;86.50;;;;;;5054246;28;20503;-69
2023/04/18 01:13:27;;;;;;;1999.90;999.90;;;28.80;87.00;;;;;;5050769;28;20060;-69
2023/04/18 01:15:55;;;;;;;1999.90;999.90;;;28.60;87.60;;;;;;5052808;28;20036;-69
2023/04/18 01:18:23;;;;;;;1999.90;999.90;;;28.10;87.50;;;;;;5049538;28;20472;-69
2023/04/18 01:20:52;;;;;;;1999.90;999.90;;;27.60;88.30;;;;;;5040677;28;20613;-70
2023/04/18 01:23:20;;;;;;;1999.90;999.90;;;27.00;89.20;;;;;;5048783;28;20020;-69
2023/04/18 01:25:50;;;;;;;1999.90;999.90;;;26.50;90.10;;;;;;5051562;28;20029;-69
2023/04/18 01:28:20;;;;;;;1999.90;999.90;;;26.10;90.70;;;;;;5044713;28;20033;-69
2023/04/18 01:30:47;;;;;;;1999.90;999.90;;;26.10;90.50;;;;;;5045237;28;20747;-69
2023/04/18 01:33:15;;;;;;;1999.90;999.90;;;26.10;90.20;;;;;;5058394;28;20041;-69
2023/04/18 01:35:42;;;;;;;1999.90;999.90;;;25.80;90.00;;;;;;5043707;28;20078;-69
2023/04/18 01:38:10;;;;;;;1999.90;999.90;;;25.60;91.00;;;;;;5047394;28;20047;-69
2023/04/18 01:40:37;;;;;;;1999.90;999.90;;;25.60;90.80;;;;;;5050800;28;20087;-70
2023/04/18 01:43:04;;;;;;;1999.90;999.90;;;25.80;90.30;;;;;;5044557;28;20025;-69
2023/04/18 01:45:32;;;;;;;1999.90;999.90;;;26.70;90.50;;;;;;5055931;28;20033;-69
2023/04/18 01:47:59;;;;;;;1999.90;999.90;;;27.10;89.10;;;;;;5051676;28;20021;-69
2023/04/18 01:50:26;;;;;;;1999.90;999.90;;;26.50;89.10;;;;;;5051583;28;20036;-69
2023/04/18 01:52:54;;;;;;;1999.90;999.90;;;26.00;90.10;;;;;;5047763;28;20507;-69
2023/04/18 01:55:21;;;;;;;1999.90;999.90;;;25.50;90.50;;;;;;5049965;28;20116;-69
2023/04/18 01:57:49;;;;;;;1999.90;999.90;;;25.10;90.50;;;;;;5053397;28;20021;-69
2023/04/18 02:00:17;;;;;;;1999.90;999.90;;;24.80;91.20;;;;;;5043736;28;20067;-69
2023/04/18 02:02:44;;;;;;;1999.90;999.90;;;25.10;91.30;;;;;;5038377;28;20033;-69
2023/04/18 02:05:12;;;;;;;1999.90;999.90;;;25.50;90.90;;;;;;5023585;28;20161;-69
2023/04/18 02:07:39;;;;;;;1999.90;999.90;;;26.00;90.60;;;;;;5028305;28;20404;-69
2023/04/18 02:10:08;;;;;;;1999.90;999.90;;;26.60;90.30;;;;;;5029925;28;20047;-70
2023/04/18 02:12:35;;;;;;;1999.90;999.90;;;27.00;90.20;;;;;;5033397;28;20025;-69
2023/04/18 02:15:02;;;;;;;1999.90;999.90;;;27.10;88.90;;;;;;5031791;28;20574;-68
2023/04/18 02:17:30;;;;;;;1999.90;999.90;;;27.20;89.50;;;;;;5032404;28;20040;-69
2023/04/18 02:19:58;;;;;;;1999.90;999.90;;;27.20;89.70;;;;;;5037083;28;20501;-69
2023/04/18 02:22:25;;;;;;;1999.90;999.90;;;27.50;89.80;;;;;;5037335;28;20021;-68
2023/04/18 02:24:52;;;;;;;1999.90;999.90;;;27.60;90.00;;;;;;5040380;28;20033;-68
2023/04/18 02:27:19;;;;;;;1999.90;999.90;;;27.80;89.30;;;;;;5050644;28;20017;-69
2023/04/18 02:29:47;;;;;;;1999.90;999.90;;;28.10;89.40;;;;;;5044418;28;20041;-70
2023/04/18 02:32:14;;;;;;;1999.90;999.90;;;28.00;87.70;;;;;;5049756;28;20033;-68
2023/04/18 02:34:41;;;;;;;1999.90;999.90;;;27.30;87.90;;;;;;5051063;28;20048;-68
2023/04/18 02:37:09;;;;;;;1999.90;999.90;;;26.60;88.80;;;;;;5046839;28;20040;-70
2023/04/18 02:39:36;;;;;;;1999.90;999.90;;;26.20;90.10;;;;;;5044596;28;20387;-70
2023/04/18 02:42:03;;;;;;;1999.90;999.90;;;26.00;90.20;;;;;;5049504;28;20028;-70
2023/04/18 02:44:30;;;;;;;1999.90;999.90;;;26.50;90.10;;;;;;5054820;28;20479;-69
2023/04/18 02:46:58;;;;;;;1999.90;999.90;;;26.90;89.60;;;;;;5056512;28;20032;-69
2023/04/18 02:49:25;;;;;;;1999.90;999.90;;;26.70;89.50;;;;;;5049840;28;20491;-68
2023/04/18 02:51:56;;;;;;;1999.90;999.90;;;26.30;89.30;;;;;;5051837;28;20041;-69
2023/04/18 02:54:23;;;;;;;1999.90;999.90;;;25.90;90.00;;;;;;5048544;28;20039;-68
2023/04/18 02:56:55;;;;;;;1999.90;999.90;;;25.70;90.40;;;;;;5049358;28;20028;-69
2023/04/18 02:59:23;;;;;;;1999.90;999.90;;;25.40;90.60;;;;;;5049884;28;20041;-68
2023/04/18 03:01:50;;;;;;;1999.90;999.90;;;25.10;91.10;;;;;;5056923;28;20025;-68
2023/04/18 03:04:17;;;;;;;1999.90;999.90;;;24.90;91.20;;;;;;5054917;28;20017;-70
2023/04/18 03:06:46;;;;;;;1999.90;999.90;;;24.70;91.30;;;;;;5047817;28;20025;-68
2023/04/18 03:09:14;;;;;;;1999.90;999.90;;;24.60;91.70;;;;;;5055379;28;20053;-68
2023/04/18 03:11:41;;;;;;;1999.90;999.90;;;24.90;91.80;;;;;;5050477;28;20186;-69
2023/04/18 03:14:08;;;;;;;1999.90;999.90;;;25.80;91.40;;;;;;5052903;28;20045;-69
2023/04/18 03:16:36;;;;;;;1999.90;999.90;;;26.60;90.50;;;;;;5057637;28;20464;-69
2023/04/18 03:19:04;;;;;;;1999.90;999.90;;;27.20;90.00;;;;;;5052328;28;20099;-69
2023/04/18 03:21:31;;;;;;;1999.90;999.90;;;27.00;90.00;;;;;;5058834;28;20029;-68
2023/04/18 03:23:58;;;;;;;1999.90;999.90;;;26.60;90.10;;;;;;5044225;28;20033;-69
2023/04/18 03:26:25;;;;;;;1999.90;999.90;;;26.50;90.40;;;;;;5053079;28;20106;-68
2023/04/18 03:28:53;;;;;;;1999.90;999.90;;;26.10;90.20;;;;;;5045982;28;20450;-68
2023/04/18 03:31:20;;;;;;;1999.90;999.90;;;25.80;90.70;;;;;;5051913;28;20017;-69
2023/04/18 03:33:48;;;;;;;1999.90;999.90;;;25.90;90.50;;;;;;5045340;28;20030;-68
2023/04/18 03:36:24;;;;;;;1999.90;999.90;;;26.30;90.70;;;;;;5053938;28;20032;-68
2023/04/18 03:38:51;;;;;;;1999.90;999.90;;;27.00;91.10;;;;;;5047854;28;20029;-68
2023/04/18 03:41:18;;;;;;;1999.90;999.90;;;27.60;90.10;;;;;;5052547;28;20021;-69
2023/04/18 03:43:45;;;;;;;1999.90;999.90;;;27.70;89.70;;;;;;5049994;28;20364;-68
2023/04/18 03:46:13;;;;;;;1999.90;999.90;;;27.40;89.10;;;;;;5054634;28;20089;-68
2023/04/18 03:48:40;;;;;;;1999.90;999.90;;;26.90;90.10;;;;;;5063193;28;20125;-69
2023/04/18 03:51:07;;;;;;;1999.90;999.90;;;26.40;90.50;;;;;;5050137;28;20769;-68
2023/04/18 03:53:35;;;;;;;1999.90;999.90;;;25.80;90.60;;;;;;5046819;28;20102;-69
2023/04/18 03:56:02;;;;;;;1999.90;999.90;;;25.40;91.30;;;;;;5053875;28;20017;-70
2023/04/18 03:58:29;;;;;;;1999.90;999.90;;;25.10;91.90;;;;;;5048562;28;20033;-69
2023/04/18 04:00:57;;;;;;;1999.90;999.90;;;24.90;92.10;;;;;;5048225;28;20040;-69
2023/04/18 04:03:26;;;;;;;1999.90;999.90;;;24.80;92.20;;;;;;5048007;28;20025;-69
2023/04/18 04:05:54;;;;;;;1999.90;999.90;;;24.50;92.40;;;;;;5048936;28;20093;-69
2023/04/18 04:08:22;;;;;;;1999.90;999.90;;;24.30;92.60;;;;;;5048503;28;20482;-69
2023/04/18 04:10:49;;;;;;;1999.90;999.90;;;24.30;92.90;;;;;;5047238;28;20024;-69
2023/04/18 04:13:17;;;;;;;1999.90;999.90;;;24.20;92.70;;;;;;5052440;28;20056;-69
2023/04/18 04:15:44;;;;;;;1999.90;999.90;;;24.30;92.70;;;;;;5054127;28;21012;-69
2023/04/18 04:18:11;;;;;;;1999.90;999.90;;;24.30;92.90;;;;;;5053931;28;20041;-69
2023/04/18 04:20:39;;;;;;;1999.90;999.90;;;24.40;92.90;;;;;;5052451;28;20024;-68
2023/04/18 04:23:06;;;;;;;1999.90;999.90;;;24.30;92.80;;;;;;5049890;28;20313;-69
2023/04/18 04:25:33;;;;;;;1999.90;999.90;;;24.30;93.00;;;;;;5051201;28;20060;-70
2023/04/18 04:28:01;;;;;;;1999.90;999.90;;;24.10;93.00;;;;;;5050060;28;20476;-69
2023/04/18 04:30:47;;;;;;;1999.90;999.90;;;24.00;93.30;;;;;;5056733;28;20435;-69
2023/04/18 04:33:32;;;;;;;1999.90;999.90;;;24.00;93.20;;;;;;5036516;28;20028;-69
2023/04/18 04:36:13;;;;;;;1999.90;999.90;;;23.90;93.40;;;;;;5050655;28;20108;-67
2023/04/18 04:38:41;;;;;;;1999.90;999.90;;;23.70;93.30;;;;;;5054481;28;20039;-68
2023/04/18 04:41:08;;;;;;;1999.90;999.90;;;23.50;93.60;;;;;;5056824;28;20025;-69
2023/04/18 04:43:36;;;;;;;1999.90;999.90;;;23.40;93.90;;;;;;5056108;28;20491;-70
2023/04/18 04:46:06;;;;;;;1999.90;999.90;;;23.50;94.30;;;;;;5056193;28;20029;-69
2023/04/18 04:48:34;;;;;;;1999.90;999.90;;;23.60;94.40;;;;;;5041493;28;20024;-69
2023/04/18 04:51:27;;;;;;;1999.90;999.90;;;23.60;94.30;;;;;;5058469;28;20033;-69
2023/04/18 04:53:54;;;;;;;1999.90;999.90;;;23.60;94.30;;;;;;5048830;28;20633;-68
2023/04/18 04:56:22;;;;;;;1999.90;999.90;;;23.70;94.10;;;;;;5061038;28;20123;-69
2023/04/18 04:58:49;;;;;;;1999.90;999.90;;;23.70;94.40;;;;;;5042416;28;20021;-69
2023/04/18 05:01:29;;;;;;;1999.90;999.90;;;23.70;94.30;;;;;;5053223;28;20045;-69
2023/04/18 05:03:56;;;;;;;1999.90;999.90;;;23.70;94.20;;;;;;5048377;28;20056;-68
2023/04/18 05:06:24;;;;;;;1999.90;999.90;;;23.70;94.40;;;;;;5055291;28;20028;-68
2023/04/18 05:08:52;;;;;;;1999.90;999.90;;;23.60;94.20;;;;;;5051008;28;20055;-68
2023/04/18 05:11:31;;;;;;;1999.90;999.90;;;23.60;94.40;;;;;;5053051;28;20168;-68
2023/04/18 05:13:59;;;;;;;1999.90;999.90;;;23.60;94.40;;;;;;5048275;28;20041;-68
2023/04/18 05:16:36;;;;;;;1999.90;999.90;;;23.60;94.60;;;;;;5054065;28;20029;-68
2023/04/18 05:19:04;;;;;;;1999.90;999.90;;;23.60;94.80;;;;;;5053390;28;20025;-69
2023/04/18 05:21:32;;;;;;;1999.90;999.90;;;23.60;94.70;;;;;;5051001;28;20024;-71
2023/04/18 05:24:00;;;;;;;1999.90;999.90;;;23.50;94.40;;;;;;5052828;28;20510;-72
2023/04/18 05:26:27;;;;;;;1999.90;999.90;;;23.50;94.50;;;;;;5060239;28;20033;-69
2023/04/18 05:28:54;;;;;;;1999.90;999.90;;;23.40;94.50;;;;;;5049074;28;20046;-69
2023/04/18 05:31:22;;;;;;;1999.90;999.90;;;23.20;94.90;;;;;;5052026;28;20377;-69
2023/04/18 05:33:49;;;;;;;1999.90;999.90;;;23.20;95.00;;;;;;5045441;28;20037;-70
2023/04/18 05:36:16;;;;;;;1999.90;999.90;;;23.20;95.30;;;;;;5049892;28;20032;-70
2023/04/18 05:38:43;;;;;;;1999.90;999.90;;;23.30;95.30;;;;;;5049376;28;20049;-69
2023/04/18 05:41:11;;;;;;;1999.90;999.90;;;23.20;95.20;;;;;;5054448;28;20020;-68
2023/04/18 05:43:38;;;;;;;1999.90;999.90;;;23.30;95.30;;;;;;5057450;28;20488;-70
2023/04/18 05:46:06;;;;;;;1999.90;999.90;;;23.20;95.30;;;;;;5052888;28;20459;-69
2023/04/18 05:48:33;;;;;;;1999.90;999.90;;;23.20;95.50;;;;;;5049343;28;20044;-69
2023/04/18 05:51:00;;;;;;;1999.90;999.90;;;23.20;95.60;;;;;;5054059;28;20027;-69
2023/04/18 05:53:28;;;;;;;1999.90;999.90;;;23.20;95.40;;;;;;5047491;28;20499;-69
2023/04/18 05:55:56;;;;;;;1999.90;999.90;;;23.20;95.40;;;;;;5047417;28;20392;-68
2023/04/18 05:58:23;;;;;;;1999.90;999.90;;;23.10;95.70;;;;;;5053420;28;20051;-69
2023/04/18 06:00:52;;;;;;;1999.90;999.90;;;23.10;95.70;;;;;;5055717;28;20495;-69
2023/04/18 06:03:19;;;;;;;1999.90;999.90;;;23.10;95.90;;;;;;5046988;28;20471;-69
2023/04/18 06:05:46;;;;;;;1999.90;999.90;;;23.00;95.70;;;;;;5043471;28;20555;-69
2023/04/18 06:08:14;;;;;;;1999.90;999.90;;;23.00;95.80;;;;;;5054517;28;20052;-69
2023/04/18 06:10:41;;;;;;;1999.90;999.90;;;23.00;95.80;;;;;;5060055;28;20063;-69
2023/04/18 06:13:08;;;;;;;1999.90;999.90;;;22.90;95.90;;;;;;5054001;28;20150;-71
2023/04/18 06:15:36;;;;;;;1999.90;999.90;;;22.90;95.90;;;;;;5060649;28;20388;-70
2023/04/18 06:18:03;;;;;;;1999.90;999.90;;;22.90;96.00;;;;;;5050655;28;20026;-69
2023/04/18 06:20:30;;;;;;;1999.90;999.90;;;22.90;95.90;;;;;;5056316;28;20025;-69
2023/04/18 06:22:58;;;;;;;1999.90;999.90;;;22.90;96.10;;;;;;5050746;28;20036;-69
2023/04/18 06:25:25;;;;;;;1999.90;999.90;;;22.80;95.90;;;;;;5055327;28;20499;-69
2023/04/18 06:27:52;;;;;;;1999.90;999.90;;;22.80;96.10;;;;;;5057640;28;20036;-69
2023/04/18 06:30:20;;;;;;;1999.90;999.90;;;22.70;96.10;;;;;;5056064;28;20365;-69
2023/04/18 06:32:48;;;;;;;1999.90;999.90;;;22.60;96.30;;;;;;5055809;28;20111;-69
2023/04/18 06:35:16;;;;;;;1999.90;999.90;;;22.60;96.50;;;;;;5058825;28;20037;-69
2023/04/18 06:37:43;;;;;;;1999.90;999.90;;;22.50;96.40;;;;;;5055754;28;20480;-69
2023/04/18 06:40:12;;;;;;;1999.90;999.90;;;22.60;96.40;;;;;;5053863;28;20029;-70
2023/04/18 06:42:39;;;;;;;1999.90;999.90;;;22.50;96.20;;;;;;5045294;28;20488;-69
2023/04/18 06:45:09;;;;;;;1999.90;999.90;;;22.40;96.40;;;;;;5057840;28;20517;-69
2023/04/18 06:47:37;;;;;;;1999.90;999.90;;;22.40;96.40;;;;;;5055318;28;20033;-69
2023/04/18 06:50:05;;;;;;;1999.90;999.90;;;22.40;96.30;;;;;;5056397;28;20033;-68
2023/04/18 06:52:34;;;;;;;1999.90;999.90;;;22.30;96.50;;;;;;5052547;28;20083;-70
2023/04/18 06:55:01;;;;;;;1999.90;999.90;;;22.30;96.40;;;;;;5057760;28;20479;-70
2023/04/18 06:57:28;;;;;;;1999.90;999.90;;;22.20;96.40;;;;;;5052108;28;20474;-71
2023/04/18 06:59:56;;;;;;;1999.90;999.90;;;22.20;96.60;;;;;;5053398;28;20033;-70
2023/04/18 07:02:23;;;;;;;1999.90;999.90;;;22.10;96.50;;;;;;5040180;28;20028;-71
2023/04/18 07:04:50;;;;;;;1999.90;999.90;;;22.00;96.80;;;;;;5045789;28;20025;-70
2023/04/18 07:07:19;;;;;;;1999.90;999.90;;;21.90;97.20;;;;;;5046425;28;20044;-68
2023/04/18 07:09:46;;;;;;;1999.90;999.90;;;21.80;97.40;;;;;;5048089;28;20585;-69
2023/04/18 07:12:14;;;;;;;1999.90;999.90;;;21.70;97.50;;;;;;5047885;28;20033;-69
2023/04/18 07:14:44;;;;;;;1999.90;999.90;;;21.60;97.60;;;;;;5044412;28;20059;-68
2023/04/18 07:17:11;;;;;;;1999.90;999.90;;;21.50;97.60;;;;;;5047259;28;20029;-69
2023/04/18 07:19:40;;;;;;;1999.90;999.90;;;21.50;97.60;;;;;;5036413;28;20099;-69
2023/04/18 07:22:07;;;;;;;1999.90;999.90;;;21.40;97.80;;;;;;5049563;28;20037;-69
2023/04/18 07:24:35;;;;;;;1999.90;999.90;;;21.40;98.00;;;;;;5046883;28;20033;-69
2023/04/18 07:27:03;;;;;;;1999.90;999.90;;;21.20;98.40;;;;;;5049315;28;20037;-69
2023/04/18 07:29:30;;;;;;;1999.90;999.90;;;21.20;98.30;;;;;;5042863;28;20029;-69
2023/04/18 07:31:58;;;;;;;1999.90;999.90;;;21.00;98.30;;;;;;5045635;28;20094;-69
2023/04/18 07:34:28;;;;;;;1999.90;999.90;;;20.90;98.30;;;;;;5046074;28;20043;-69
2023/04/18 07:36:57;;;;;;;1999.90;999.90;;;20.80;98.60;;;;;;5063584;28;20052;-69
2023/04/18 07:39:24;;;;;;;1999.90;999.90;;;20.70;99.00;;;;;;5046039;28;20040;-69
2023/04/18 07:41:51;;;;;;;1999.90;999.90;;;20.60;99.30;;;;;;5057061;28;20489;-69
2023/04/18 07:44:20;;;;;;;1999.90;999.90;;;20.60;99.50;;;;;;5048836;28;20042;-69
2023/04/18 07:46:48;;;;;;;1999.90;999.90;;;20.50;99.80;;;;;;5053389;28;20020;-69
2023/04/18 07:49:15;;;;;;;1999.90;999.90;;;20.40;99.90;;;;;;5052049;28;20043;-70
2023/04/18 07:51:42;;;;;;;1999.90;999.90;;;20.30;99.90;;;;;;5053442;28;20021;-71
2023/04/18 07:54:10;;;;;;;1999.90;999.90;;;20.20;99.90;;;;;;5049723;28;20106;-68
2023/04/18 07:56:37;;;;;;;1999.90;999.90;;;20.20;99.90;;;;;;5056287;28;20087;-70
2023/04/18 07:59:04;;;;;;;1999.90;999.90;;;20.00;99.90;;;;;;5051122;28;20095;-69
2023/04/18 08:01:31;;;;;;;1999.90;999.90;;;20.00;99.90;;;;;;5048260;28;20033;-70
2023/04/18 08:04:00;;;;;;;1999.90;999.90;;;19.90;99.90;;;;;;5048348;28;20032;-69
2023/04/18 08:06:28;;;;;;;1999.90;999.90;;;19.80;99.90;;;;;;5056846;28;20534;-69
2023/04/18 08:08:57;;;;;;;1999.90;999.90;;;19.80;99.90;;;;;;5051862;28;20045;-70
2023/04/18 08:11:25;;;;;;;1999.90;999.90;;;19.70;99.90;;;;;;5043348;28;20058;-71
2023/04/18 08:13:52;;;;;;;1999.90;999.90;;;19.60;99.90;;;;;;5044998;28;20032;-70
2023/04/18 08:16:19;;;;;;;1999.90;999.90;;;19.60;99.90;;;;;;5056433;28;20070;-69
2023/04/18 08:18:47;;;;;;;1999.90;999.90;;;19.50;99.90;;;;;;5051683;28;20035;-70
2023/04/18 08:21:14;;;;;;;1999.90;999.90;;;19.40;99.90;;;;;;5048559;28;21299;-69
2023/04/18 08:23:42;;;;;;;1999.90;999.90;;;19.30;99.90;;;;;;5049429;28;20546;-70
2023/04/18 08:26:09;;;;;;;1999.90;999.90;;;19.20;99.90;;;;;;5056833;28;20100;-69
2023/04/18 08:28:36;;;;;;;1999.90;999.90;;;19.10;99.90;;;;;;5049460;28;20483;-68
2023/04/18 08:31:04;;;;;;;1999.90;999.90;;;19.10;99.90;;;;;;5053153;28;20108;-70
2023/04/18 08:33:31;;;;;;;1999.90;999.90;;;19.00;99.90;;;;;;5046164;28;20041;-69
2023/04/18 08:35:59;;;;;;;1999.90;999.90;;;18.90;99.90;;;;;;5044568;28;20029;-69
2023/04/18 08:38:26;;;;;;;1999.90;999.90;;;18.80;99.90;;;;;;5046760;28;20051;-69
2023/04/18 08:40:54;;;;;;;1999.90;999.90;;;18.80;99.90;;;;;;5048541;28;20049;-69
2023/04/18 08:43:21;;;;;;;1999.90;999.90;;;18.70;99.90;;;;;;5044157;28;20071;-70
2023/04/18 08:45:48;;;;;;;1999.90;999.90;;;18.70;99.90;;;;;;5044978;28;20025;-68
2023/04/18 08:48:16;;;;;;;1999.90;999.90;;;18.60;99.90;;;;;;5046479;28;20037;-69
2023/04/18 08:50:44;;;;;;;1999.90;999.90;;;18.60;99.90;;;;;;5041581;28;20040;-69
2023/04/18 08:53:12;;;;;;;1999.90;999.90;;;18.60;99.90;;;;;;5046367;28;20054;-69
2023/04/18 08:55:40;;;;;;;1999.90;999.90;;;18.60;99.90;;;;;;5052311;28;20728;-68
2023/04/18 08:58:08;;;;;;;1999.90;999.90;;;18.60;99.90;;;;;;5049060;28;20108;-69
2023/04/18 09:00:35;;;;;;;1999.90;999.90;;;18.50;99.90;;;;;;5051413;28;20499;-69
2023/04/18 09:03:02;;;;;;;1999.90;999.90;;;18.50;99.90;;;;;;5054019;28;20029;-69
2023/04/18 09:05:30;;;;;;;1999.90;999.90;;;18.40;99.90;;;;;;5050266;28;20053;-69
2023/04/18 09:07:57;;;;;;;1999.90;999.90;;;18.40;99.90;;;;;;5044510;28;20538;-69
2023/04/18 09:10:33;;;;;;;1999.90;999.90;;;18.30;99.90;;;;;;5053437;28;20040;-69
2023/04/18 09:13:03;;;;;;;1999.90;999.90;;;18.30;99.90;;;;;;5047769;28;20158;-69
2023/04/18 09:15:31;;;;;;;1999.90;999.90;;;18.30;99.90;;;;;;5060217;28;20032;-68
2023/04/18 09:18:01;;;;;;;1999.90;999.90;;;18.20;99.90;;;;;;5039515;28;20039;-68
2023/04/18 09:20:41;;;;;;;1999.90;999.90;;;18.10;99.90;;;;;;5047274;28;20725;-69
2023/04/18 09:23:09;;;;;;;1999.90;999.90;;;18.10;99.90;;;;;;5044734;28;20022;-68
2023/04/18 09:25:43;;;;;;;1999.90;999.90;;;18.00;99.90;;;;;;5050273;28;20024;-69
2023/04/18 09:28:29;;;;;;;1999.90;999.90;;;18.00;99.90;;;;;;5050602;28;20033;-68
2023/04/18 09:31:10;;;;;;;1999.90;999.90;;;17.90;99.90;;;;;;5047382;28;20029;-69
2023/04/18 09:33:41;;;;;;;1999.90;999.90;;;17.80;99.90;;;;;;5048730;28;20037;-69
2023/04/18 09:36:23;;;;;;;1999.90;999.90;;;17.70;99.90;;;;;;5055386;28;20120;-69
2023/04/18 09:38:53;;;;;;;1999.90;999.90;;;17.70;99.90;;;;;;5053341;28;20404;-69
2023/04/18 09:41:22;;;;;;;1999.90;999.90;;;17.60;99.90;;;;;;5040809;28;20141;-69
2023/04/18 09:43:50;;;;;;;1999.90;999.90;;;17.50;99.90;;;;;;5048954;28;20082;-69
2023/04/18 09:46:20;;;;;;;1999.90;999.90;;;17.40;99.90;;;;;;5058813;28;20375;-68
2023/04/18 09:48:47;;;;;;;1999.90;999.90;;;17.40;99.90;;;;;;5053034;28;20462;-68
2023/04/18 09:51:15;;;;;;;1999.90;999.90;;;17.30;99.90;;;;;;5056298;28;20031;-69
2023/04/18 09:53:46;;;;;;;1999.90;999.90;;;17.30;99.90;;;;;;5049361;28;20084;-70
2023/04/18 09:56:26;;;;;;;1999.90;999.90;;;17.20;99.90;;;;;;5057926;28;20035;-69
2023/04/18 09:59:02;;;;;;;1999.90;999.90;;;17.20;99.90;;;;;;5051559;28;20028;-69
2023/04/18 10:01:30;;;;;;;1999.90;999.90;;;17.10;99.90;;;;;;5056128;28;20021;-69
2023/04/18 10:04:00;;;;;;;1999.90;999.90;;;17.00;99.90;;;;;;5050814;28;20036;-69
2023/04/18 10:06:30;;;;;;;1999.90;999.90;;;17.00;99.90;;;;;;5062647;28;20028;-68
2023/04/18 10:08:58;;;;;;;1999.90;999.90;;;16.90;99.90;;;;;;5054812;28;20049;-69
2023/04/18 10:11:26;;;;;;;1999.90;999.90;;;16.90;99.90;;;;;;5057431;28;20040;-70
2023/04/18 10:13:57;;;;;;;1999.90;999.90;;;16.80;99.90;;;;;;5044338;28;20040;-68
2023/04/18 10:16:26;;;;;;;1999.90;999.90;;;16.80;99.90;;;;;;5048751;28;20628;-69
2023/04/18 10:18:53;;;;;;;1999.90;999.90;;;16.70;99.90;;;;;;5045644;28;20136;-69
2023/04/18 10:21:21;;;;;;;1999.90;999.90;;;16.70;99.90;;;;;;5048527;28;20017;-69
2023/04/18 10:23:50;;;;;;;1999.90;999.90;;;16.60;99.90;;;;;;5051115;28;20082;-68
2023/04/18 10:26:17;;;;;;;1999.90;999.90;;;16.50;99.90;;;;;;5042742;28;20044;-69
2023/04/18 10:28:58;;;;;;;1999.90;999.90;;;16.50;99.90;;;;;;5049756;28;20115;-69
2023/04/18 10:31:27;;;;;;;1999.90;999.90;;;16.40;99.90;;;;;;5045653;28;20040;-69
2023/04/18 10:33:55;;;;;;;1999.90;999.90;;;16.40;99.90;;;;;;5048583;28;20075;-68
2023/04/18 10:36:23;;;;;;;1999.90;999.90;;;16.30;99.90;;;;;;5049739;28;20112;-69
2023/04/18 10:38:53;;;;;;;1999.90;999.90;;;16.30;99.90;;;;;;5048111;28;20031;-69
2023/04/18 10:41:31;;;;;;;1999.90;999.90;;;16.30;99.90;;;;;;5050748;28;20491;-69
2023/04/18 10:44:16;;;;;;;1999.90;999.90;;;16.20;99.90;;;;;;5044602;28;20064;-68
2023/04/18 10:46:53;;;;;;;1999.90;999.90;;;16.20;99.90;;;;;;5044824;28;20434;-69
2023/04/18 10:49:25;;;;;;;1999.90;999.90;;;16.20;99.90;;;;;;5043955;28;20410;-68
2023/04/18 10:51:58;;;;;;;1999.90;999.90;;;16.10;99.90;;;;;;5049616;28;20032;-68
2023/04/18 10:54:50;;;;;;;1999.90;999.90;;;16.10;99.90;;;;;;5051928;28;20040;-70
2023/04/18 10:57:18;;;;;;;1999.90;999.90;;;16.00;99.90;;;;;;5046903;28;20072;-69
2023/04/18 10:59:50;;;;;;;1999.90;999.90;;;16.00;99.90;;;;;;5059367;28;20083;-70
2023/04/18 11:02:28;;;;;;;1999.90;999.90;;;15.90;99.90;;;;;;5049053;28;20090;-70
2023/04/18 11:05:03;;;;;;;1999.90;999.90;;;15.90;99.90;;;;;;5050091;28;20103;-69
2023/04/18 11:07:39;;;;;;;1999.90;999.90;;;15.80;99.90;;;;;;5050674;28;20514;-69
2023/04/18 11:10:08;;;;;;;1999.90;999.90;;;15.80;99.90;;;;;;5053831;28;20585;-69
2023/04/18 11:12:37;;;;;;;1999.90;999.90;;;15.70;99.90;;;;;;5052094;28;20369;-69
2023/04/18 11:15:20;;;;;;;1999.90;999.90;;;15.70;99.90;;;;;;5049030;28;20037;-69
2023/04/18 11:18:00;;;;;;;1999.90;999.90;;;15.70;99.90;;;;;;5047953;28;20025;-69
2023/04/18 11:20:29;;;;;;;1999.90;999.90;;;15.70;99.90;;;;;;5055823;28;20707;-69
2023/04/18 11:22:59;;;;;;;1999.90;999.90;;;15.60;99.90;;;;;;5049963;28;20028;-69
2023/04/18 11:25:33;;;;;;;1999.90;999.90;;;15.50;99.90;;;;;;5053914;28;20081;-69
2023/04/18 11:28:02;;;;;;;1999.90;999.90;;;15.50;99.90;;;;;;5051802;28;20464;-69
2023/04/18 11:30:40;;;;;;;1999.90;999.90;;;15.50;99.90;;;;;;5057445;28;20474;-70
2023/04/18 11:33:11;;;;;;;1999.90;999.90;;;15.50;99.90;;;;;;5048151;28;20037;-68
2023/04/18 11:35:43;;;;;;;1999.90;999.90;;;15.40;99.90;;;;;;5054471;28;20036;-70
2023/04/18 11:38:14;;;;;;;1999.90;999.90;;;15.40;99.90;;;;;;5055987;28;20293;-68
2023/04/18 11:40:50;;;;;;;1999.90;999.90;;;15.40;99.90;;;;;;5056654;28;20040;-68
2023/04/18 11:43:24;;;;;;;1999.90;999.90;;;15.30;99.90;;;;;;5050232;28;20060;-69
2023/04/18 11:46:00;;;;;;;1999.90;999.90;;;15.30;99.90;;;;;;5056202;28;20025;-69
2023/04/18 11:48:36;;;;;;;;;;;15.20;99.90;;;;;;5054302;28;20490;-68
2023/04/18 11:51:05;;;;;;;1999.90;999.90;;;15.20;99.90;;;;;;5054161;28;19935;-69
2023/04/18 11:53:38;;;;;;;1999.90;999.90;;;15.10;99.90;;;;;;5040606;28;20330;-69
2023/04/18 11:56:06;;;;;;;1999.90;999.90;;;15.10;99.90;;;;;;5056584;28;20572;-69
2023/04/18 11:58:33;;;;;;;1999.90;999.90;;;15.00;99.90;;;;;;5052145;28;20155;-69
2023/04/18 12:01:16;;;;;;;1999.90;999.90;;;15.00;99.90;;;;;;5054084;28;20032;-69
2023/04/18 12:04:00;;;;;;;1999.90;999.90;;;15.00;99.90;;;;;;5042919;28;20113;-70
2023/04/18 12:06:44;;;;;;;1999.90;999.90;;;14.90;99.90;;;;;;5050460;28;20100;-71
2023/04/18 12:09:15;;;;;;;1999.90;999.90;;;14.90;99.90;;;;;;5042157;28;20038;-68